createdAt,value
2022-12-17T00:03:29.403Z,98416.63
2022-12-17T00:07:50.059Z,98422.91
2022-12-17T00:12:12.509Z,98416.13
2022-12-17T00:16:35.131Z,98422.78
2022-12-17T00:20:55.772Z,98422.94
2022-12-17T00:25:17.109Z,98423.53
2022-12-17T00:29:38.213Z,98434.25
2022-12-17T00:33:58.749Z,98428.38
2022-12-17T00:38:19.316Z,98432.13
2022-12-17T00:42:39.783Z,98440.03
2022-12-17T00:47:00.381Z,98444.50
2022-12-17T00:51:21.141Z,98444.69
2022-12-17T00:55:42.002Z,98444.22
2022-12-17T01:00:02.487Z,98452.75
2022-12-17T01:04:23.559Z,98451.84
2022-12-17T01:08:44.091Z,98452.91
2022-12-17T01:13:04.921Z,98467.44
2022-12-17T01:17:25.478Z,98476.81
2022-12-17T01:21:46.876Z,98484.56
2022-12-17T01:26:14.906Z,98480.72
2022-12-17T01:30:35.814Z,98482.56
2022-12-17T01:34:57.178Z,98488.41
2022-12-17T01:39:17.609Z,98490.16
2022-12-17T01:43:54.793Z,98505.00
2022-12-17T01:48:20.468Z,98504.78
2022-12-17T01:52:41.215Z,98508.41
2022-12-17T01:57:02.327Z,98510.50
2022-12-17T02:01:23.206Z,98507.97
2022-12-17T02:05:56.831Z,98506.22
2022-12-17T02:10:38.713Z,98512.41
2022-12-17T02:15:40.533Z,98512.75
2022-12-17T02:20:47.711Z,98520.75
2022-12-17T02:25:17.603Z,98524.69
2022-12-17T02:29:42.155Z,98526.97
2022-12-17T02:34:03.446Z,98520.84
2022-12-17T02:38:41.934Z,98528.97
2022-12-17T02:43:05.210Z,98525.78
2022-12-17T02:47:29.875Z,98532.06
2022-12-17T02:51:50.767Z,98528.47
2022-12-17T02:56:11.504Z,98530.22
2022-12-17T03:00:33.215Z,98520.13
2022-12-17T03:04:54.234Z,98526.19
2022-12-17T03:09:15.004Z,98532.81
2022-12-17T03:13:43.538Z,98536.47
2022-12-17T03:18:04.504Z,98536.53
2022-12-17T03:22:26.026Z,98544.91
2022-12-17T03:26:46.743Z,98546.56
2022-12-17T03:31:07.497Z,98546.47
2022-12-17T03:35:28.312Z,98555.00
2022-12-17T03:39:48.981Z,98551.91
2022-12-17T03:44:09.413Z,98561.69
2022-12-17T03:48:33.621Z,98560.25
2022-12-17T03:52:54.357Z,98570.56
2022-12-17T03:57:16.391Z,98577.50
2022-12-17T04:01:37.268Z,98562.84
2022-12-17T04:05:58.060Z,98572.53
2022-12-17T04:10:18.505Z,98564.97
2022-12-17T04:14:39.082Z,98567.69
2022-12-17T04:18:59.466Z,98568.13
2022-12-17T04:23:19.919Z,98584.38
2022-12-17T04:27:40.428Z,98578.78
2022-12-17T04:32:00.881Z,98578.03
2022-12-17T04:36:21.292Z,98576.41
2022-12-17T04:40:42.025Z,98582.94
2022-12-17T04:45:03.068Z,98591.47
2022-12-17T04:49:23.492Z,98587.88
2022-12-17T04:53:44.090Z,98593.53
2022-12-17T04:58:04.567Z,98602.97
2022-12-17T05:02:25.017Z,98620.09
2022-12-17T05:06:45.970Z,98627.94
2022-12-17T05:11:07.126Z,98626.84
2022-12-17T05:15:27.889Z,98622.47
2022-12-17T05:19:48.680Z,98626.28
2022-12-17T05:24:09.215Z,98626.22
2022-12-17T05:28:29.466Z,98633.91
2022-12-17T05:32:50.218Z,98629.50
2022-12-17T05:37:10.711Z,98636.47
2022-12-17T05:41:31.276Z,98653.44
2022-12-17T05:45:52.065Z,98651.72
2022-12-17T05:50:12.882Z,98650.00
2022-12-17T05:54:33.273Z,98651.25
2022-12-17T05:58:53.746Z,98654.00
2022-12-17T06:03:22.393Z,98670.25
2022-12-17T06:07:43.370Z,98671.63
2022-12-17T06:12:03.970Z,98679.31
2022-12-17T06:16:27.535Z,98678.22
2022-12-17T06:20:48.156Z,98684.41
2022-12-17T06:25:08.745Z,98690.81
2022-12-17T06:29:29.479Z,98689.94
2022-12-17T06:33:49.854Z,98696.19
2022-12-17T06:38:22.061Z,98701.38
2022-12-17T06:42:42.764Z,98709.19
2022-12-17T06:47:03.578Z,98702.50
2022-12-17T06:51:24.318Z,98707.28
2022-12-17T06:55:44.966Z,98709.31
2022-12-17T07:00:05.608Z,98718.03
2022-12-17T07:04:26.508Z,98716.75
2022-12-17T07:08:47.306Z,98721.16
2022-12-17T07:13:07.733Z,98729.03
2022-12-17T07:17:28.128Z,98741.75
2022-12-17T07:21:48.975Z,98750.53
2022-12-17T07:26:09.351Z,98759.91
2022-12-17T07:30:31.207Z,98757.53
2022-12-17T07:34:51.968Z,98777.00
2022-12-17T07:39:12.293Z,98772.84
2022-12-17T07:43:34.051Z,98777.00
2022-12-17T07:47:54.824Z,98769.34
2022-12-17T07:52:15.223Z,98782.91
2022-12-17T07:56:36.175Z,98797.34
2022-12-17T08:00:56.619Z,98800.56
2022-12-17T08:05:17.375Z,98805.03
2022-12-17T08:09:37.883Z,98808.53
2022-12-17T08:13:58.855Z,98816.28
2022-12-17T08:18:26.058Z,98823.72
2022-12-17T08:22:47.250Z,98822.75
2022-12-17T08:27:07.796Z,98838.41
2022-12-17T08:31:28.258Z,98839.59
2022-12-17T08:35:48.737Z,98847.63
2022-12-17T08:40:09.131Z,98836.19
2022-12-17T08:44:29.527Z,98845.19
2022-12-17T08:48:49.894Z,98857.00
2022-12-17T08:53:18.491Z,98863.16
2022-12-17T08:57:38.913Z,98854.88
2022-12-17T09:01:59.844Z,98856.94
2022-12-17T09:06:20.773Z,98869.88
2022-12-17T09:10:41.244Z,98875.75
2022-12-17T09:15:03.518Z,98874.16
2022-12-17T09:19:24.141Z,98870.38
2022-12-17T09:23:44.716Z,98864.34
2022-12-17T09:28:05.476Z,98866.34
2022-12-17T09:32:26.061Z,98868.66
2022-12-17T09:36:51.059Z,98872.28
2022-12-17T09:41:11.786Z,98883.34
2022-12-17T09:45:36.891Z,98877.41
2022-12-17T09:49:57.911Z,98888.75
2022-12-17T09:54:18.587Z,98887.41
2022-12-17T09:58:42.077Z,98898.28
2022-12-17T10:03:03.432Z,98897.41
2022-12-17T10:07:32.004Z,98889.22
2022-12-17T10:11:53.859Z,98887.38
2022-12-17T10:16:14.634Z,98887.00
2022-12-17T10:21:02.448Z,98889.19
2022-12-17T10:25:40.290Z,98902.56
2022-12-17T10:30:02.707Z,98900.19
2022-12-17T10:34:32.486Z,98889.34
2022-12-17T10:38:53.007Z,98894.69
2022-12-17T10:43:13.449Z,98902.97
2022-12-17T10:47:36.663Z,98897.50
2022-12-17T10:51:57.414Z,98897.16
2022-12-17T10:56:19.097Z,98898.47
2022-12-17T11:00:59.061Z,98899.72
2022-12-17T11:05:21.869Z,98903.53
2022-12-17T11:09:48.550Z,98909.59
2022-12-17T11:14:10.930Z,98904.59
2022-12-17T11:18:38.715Z,98909.81
2022-12-17T11:23:06.771Z,98910.56
2022-12-17T11:27:34.767Z,98916.44
2022-12-17T11:32:17.091Z,98907.88
2022-12-17T11:36:47.790Z,98909.88
2022-12-17T11:41:14.435Z,98905.13
2022-12-17T11:45:34.754Z,98906.16
2022-12-17T11:50:14.382Z,98904.03
2022-12-17T11:54:41.328Z,98907.78
2022-12-17T11:59:17.343Z,98909.78
2022-12-17T12:04:08.858Z,98902.31
2022-12-17T12:08:44.789Z,98913.69
2022-12-17T12:13:12.286Z,98901.03
2022-12-17T12:17:38.897Z,98899.50
2022-12-17T12:22:30.818Z,98903.09
2022-12-17T12:27:02.852Z,98909.19
2022-12-17T12:31:49.773Z,98908.38
2022-12-17T12:36:16.053Z,98905.03
2022-12-17T12:41:00.924Z,98900.84
2022-12-17T12:45:44.582Z,98902.56
2022-12-17T12:50:13.098Z,98905.03
2022-12-17T12:55:08.642Z,98909.22
2022-12-17T12:59:50.868Z,98908.84
2022-12-17T13:04:13.874Z,98907.34
2022-12-17T13:08:23.319Z,98909.00
2022-12-17T13:12:33.070Z,98902.25
2022-12-17T13:16:52.361Z,98896.97
2022-12-17T13:21:04.309Z,98901.97
2022-12-17T13:25:18.133Z,98904.34
2022-12-17T13:29:37.144Z,98906.09
2022-12-17T13:34:07.299Z,98904.28
2022-12-17T13:38:26.984Z,98916.03
2022-12-17T13:42:32.497Z,98919.19
2022-12-17T13:46:47.555Z,98916.50
2022-12-17T13:51:01.808Z,98918.16
2022-12-17T13:55:18.696Z,98915.38
2022-12-17T13:59:25.180Z,98904.03
2022-12-17T14:07:50.889Z,98911.88
2022-12-17T14:12:11.638Z,98912.59
2022-12-17T14:16:18.688Z,98906.59
2022-12-17T14:20:24.738Z,98917.69
2022-12-17T14:24:29.230Z,98921.13
2022-12-17T14:28:35.271Z,98925.44
2022-12-17T14:32:37.529Z,98928.81
2022-12-17T14:36:42.518Z,98931.25
2022-12-17T14:40:44.592Z,98932.81
2022-12-17T14:44:54.138Z,98931.59
2022-12-17T14:49:00.664Z,98937.34
2022-12-17T14:53:23.267Z,98942.19
2022-12-17T14:57:25.302Z,98951.41
2022-12-17T15:01:27.419Z,98954.72
2022-12-17T15:05:29.610Z,98958.91
2022-12-17T15:09:36.485Z,98958.63
2022-12-17T15:13:38.505Z,98958.25
2022-12-17T15:17:40.555Z,98960.22
2022-12-17T15:21:43.729Z,98960.59
2022-12-17T15:25:48.397Z,98960.91
2022-12-17T15:29:50.455Z,98966.16
2022-12-17T15:33:52.523Z,98966.78
2022-12-17T15:37:54.542Z,98977.53
2022-12-17T15:42:14.933Z,98978.50
2022-12-17T15:46:17.461Z,98973.09
2022-12-17T15:50:19.606Z,98981.28
2022-12-17T15:54:21.605Z,98989.38
2022-12-17T15:58:23.624Z,98995.84
2022-12-17T16:02:25.785Z,98994.91
2022-12-17T16:06:28.015Z,98994.09
2022-12-17T16:10:30.274Z,98997.94
2022-12-17T16:14:32.875Z,99008.69
2022-12-17T16:18:36.416Z,99009.28
2022-12-17T16:22:38.797Z,99020.31
2022-12-17T16:26:41.322Z,99019.13
2022-12-17T16:30:43.510Z,99033.03
2022-12-17T16:34:45.631Z,99032.41
2022-12-17T16:38:50.723Z,99037.06
2022-12-17T16:42:52.775Z,99033.88
2022-12-17T16:46:54.949Z,99038.56
2022-12-17T16:50:57.842Z,99038.91
2022-12-17T16:54:59.874Z,99044.44
2022-12-17T16:59:04.885Z,99052.44
2022-12-17T17:03:08.307Z,99055.88
2022-12-17T17:07:10.437Z,99053.06
2022-12-17T17:11:21.492Z,99053.25
2022-12-17T17:15:23.920Z,99056.38
2022-12-17T17:19:25.932Z,99057.13
2022-12-17T17:23:27.935Z,99065.88
2022-12-17T17:27:29.921Z,99061.06
2022-12-17T17:32:08.704Z,99066.25
2022-12-17T17:35:57.463Z,99072.22
2022-12-17T17:40:03.186Z,99072.22
2022-12-17T17:44:07.995Z,99065.53
2022-12-17T17:48:10.015Z,99066.31
2022-12-17T17:52:12.382Z,99065.84
2022-12-17T17:56:25.787Z,99070.06
2022-12-17T18:00:27.830Z,99069.53
2022-12-17T18:04:30.726Z,99073.59
2022-12-17T18:08:35.014Z,99077.69
2022-12-17T18:12:56.051Z,99074.72
2022-12-17T18:16:58.159Z,99082.31
2022-12-17T18:21:12.503Z,99093.81
2022-12-17T18:25:16.759Z,99097.38
2022-12-17T18:29:23.344Z,99091.44
2022-12-17T18:33:25.500Z,99097.59
2022-12-17T18:37:27.552Z,99094.78
2022-12-17T18:41:48.280Z,99087.00
2022-12-17T18:45:51.825Z,99091.72
2022-12-17T18:49:55.123Z,99096.59
2022-12-17T18:53:59.520Z,99096.47
2022-12-17T18:58:01.599Z,99097.78
2022-12-17T19:02:03.698Z,99099.00
2022-12-17T19:06:06.107Z,99089.75
2022-12-17T19:10:08.707Z,99090.34
2022-12-17T19:14:10.715Z,99092.97
2022-12-17T19:18:12.689Z,99090.44
2022-12-17T19:22:15.701Z,99093.19
2022-12-17T19:26:20.210Z,99091.59
2022-12-17T19:30:22.381Z,99100.16
2022-12-17T19:34:24.430Z,99106.56
2022-12-17T19:38:26.474Z,99100.53
2022-12-17T19:42:36.852Z,99097.56
2022-12-17T19:46:40.135Z,99099.28
2022-12-17T19:50:42.712Z,99096.09
2022-12-17T19:54:44.834Z,99092.59
2022-12-17T19:58:50.639Z,99097.59
2022-12-17T20:02:52.706Z,99100.38
2022-12-17T20:06:54.770Z,99109.63
2022-12-17T20:10:57.702Z,99108.88
2022-12-17T20:14:59.810Z,99110.72
2022-12-17T20:19:03.793Z,99107.50
2022-12-17T20:23:05.818Z,99117.16
2022-12-17T20:27:08.034Z,99120.66
2022-12-17T20:31:11.426Z,99118.03
2022-12-17T20:35:13.703Z,99134.06
2022-12-17T20:39:16.076Z,99137.25
2022-12-17T20:43:18.091Z,99139.94
2022-12-17T20:47:20.175Z,99132.16
2022-12-17T20:51:26.073Z,99143.06
2022-12-17T20:55:31.257Z,99137.09
2022-12-17T20:59:33.495Z,99138.97
2022-12-17T21:03:36.215Z,99126.47
2022-12-17T21:07:38.289Z,99136.81
2022-12-17T21:11:42.289Z,99129.09
2022-12-17T21:15:50.797Z,99137.53
2022-12-17T21:19:52.886Z,99130.41
2022-12-17T21:23:55.312Z,99134.53
2022-12-17T21:27:57.366Z,99125.31
2022-12-17T21:31:59.702Z,99138.59
2022-12-17T21:36:07.506Z,99145.09
2022-12-17T21:40:10.965Z,99150.19
2022-12-17T21:44:14.089Z,99150.31
2022-12-17T21:48:17.653Z,99164.88
2022-12-17T21:52:19.857Z,99164.09
2022-12-17T21:56:22.657Z,99172.94
2022-12-17T22:00:25.192Z,99172.19
2022-12-17T22:04:27.301Z,99172.44
2022-12-17T22:08:29.366Z,99185.66
2022-12-17T22:12:50.292Z,99175.69
2022-12-17T22:16:52.284Z,99164.81
2022-12-17T22:21:01.275Z,99167.75
2022-12-17T22:25:08.159Z,99164.16
2022-12-17T22:29:12.546Z,99161.72
2022-12-17T22:33:49.416Z,99174.44
2022-12-17T22:40:47.655Z,99173.50
2022-12-17T22:44:46.625Z,99168.69
2022-12-17T22:46:40.312Z,99166.03
2022-12-17T22:50:52.689Z,99172.25
2022-12-17T22:55:05.158Z,99171.34
2022-12-17T22:59:07.692Z,99172.31
2022-12-17T23:03:10.151Z,99171.50
2022-12-17T23:07:12.263Z,99172.31
2022-12-17T23:11:17.992Z,99177.34
2022-12-17T23:15:37.255Z,99171.34
2022-12-17T23:19:39.275Z,99162.63
2022-12-17T23:23:42.360Z,99157.34
2022-12-17T23:27:45.662Z,99164.28
2022-12-17T23:31:48.034Z,99158.38
2022-12-17T23:35:50.128Z,99174.59
2022-12-17T23:39:52.166Z,99166.06
2022-12-17T23:43:54.577Z,99178.09
2022-12-17T23:47:57.499Z,99176.84
2022-12-17T23:51:59.648Z,99183.97
2022-12-17T23:56:10.465Z,99190.00
